Time;durP1;ratioP1;P1;durP2;ratioP2;P2;SDS_P1;SDS_P2;PMS_P1;PMS_P2;Temp;Humidity;BMP_temperature;BMP_pressure;BME280_temperature;BME280_humidity;BME280_pressure;Samples;Min_cycle;Max_cycle;Signal;HPM_P1;HPM_P2
2023/07/12 00:01:17;;;;;;;7.03;1.70;;;;;;;;;;4728638;30;20053;-77
2023/07/12 00:03:45;;;;;;;3.72;1.42;;;;;;;;;;4734444;30;20430;-76
2023/07/12 00:06:17;;;;;;;3.17;1.50;;;;;;;;;;4734214;30;20072;-76
2023/07/12 00:08:44;;;;;;;3.95;1.45;;;;;;;;;;4735794;30;20393;-75
2023/07/12 00:11:19;;;;;;;2.67;1.20;;;;;;;;;;4736277;30;20145;-76
2023/07/12 00:13:46;;;;;;;2.80;1.40;;;;;;;;;;4732891;30;20131;-75
2023/07/12 00:16:19;;;;;;;2.95;1.30;;;;;;;;;;4726482;30;20102;-75
2023/07/12 00:18:47;;;;;;;1.95;1.38;;;;;;;;;;4731054;30;20059;-75
2023/07/12 00:21:22;;;;;;;1.25;1.10;;;;;;;;;;4739654;30;20067;-76
2023/07/12 00:23:54;;;;;;;1.30;1.20;;;;;;;;;;4734874;30;20059;-76
2023/07/12 00:26:21;;;;;;;1.40;1.30;;;;;;;;;;4741043;30;20480;-76
2023/07/12 00:28:49;;;;;;;1.88;1.00;;;;;;;;;;4740327;30;20092;-75
2023/07/12 00:31:16;;;;;;;1.15;1.00;;;;;;;;;;4739621;30;20055;-76
2023/07/12 00:33:44;;;;;;;3.65;1.50;;;;;;;;;;4732892;30;20052;-75
2023/07/12 00:36:12;;;;;;;1.40;1.20;;;;;;;;;;4732798;30;20484;-75
2023/07/12 00:38:42;;;;;;;3.50;1.13;;;;;;;;;;4752318;30;20067;-75
2023/07/12 00:41:18;;;;;;;3.00;1.35;;;;;;;;;;4735713;30;20049;-75
2023/07/12 00:43:49;;;;;;;1.30;1.20;;;;;;;;;;4743233;30;20063;-75
2023/07/12 00:46:21;;;;;;;2.53;1.23;;;;;;;;;;4729100;30;20052;-75
2023/07/12 00:48:49;;;;;;;1.40;1.30;;;;;;;;;;4731343;30;20056;-75
2023/07/12 00:51:36;;;;;;;1.30;1.20;;;;;;;;;;4738361;30;20094;-75
2023/07/12 00:54:10;;;;;;;3.72;1.38;;;;;;;;;;4740571;30;20060;-75
2023/07/12 00:56:39;;;;;;;3.90;1.63;;;;;;;;;;4745759;30;20064;-76
2023/07/12 00:59:24;;;;;;;6.03;2.05;;;;;;;;;;4744240;30;20056;-76
2023/07/12 01:01:53;;;;;;;1.95;1.83;;;;;;;;;;4737102;30;20140;-76
2023/07/12 01:04:23;;;;;;;2.50;1.60;;;;;;;;;;4736614;30;20531;-76
2023/07/12 01:06:50;;;;;;;4.15;1.80;;;;;;;;;;4736534;30;20436;-76
2023/07/12 01:09:20;;;;;;;6.82;2.10;;;;;;;;;;4736537;30;20514;-76
2023/07/12 01:11:48;;;;;;;1.98;1.67;;;;;;;;;;4740330;30;20400;-76
2023/07/12 01:14:16;;;;;;;2.88;2.03;;;;;;;;;;4737762;30;20146;-76
2023/07/12 01:16:51;;;;;;;2.58;1.60;;;;;;;;;;4737182;30;20055;-74
2023/07/12 01:19:19;;;;;;;3.60;1.60;;;;;;;;;;4732471;30;20068;-76
2023/07/12 01:21:48;;;;;;;1.95;1.70;;;;;;;;;;4733099;30;20082;-75
2023/07/12 01:24:16;;;;;;;3.28;1.63;;;;;;;;;;4738030;30;20099;-76
2023/07/12 01:26:48;;;;;;;2.33;1.60;;;;;;;;;;4734562;30;20147;-76
2023/07/12 01:29:15;;;;;;;;;;;;;;;;;;4732367;30;20053;-76
2023/07/12 01:31:43;;;;;;;6.15;1.20;;;;;;;;;;4737669;30;19975;-75
2023/07/12 01:34:12;;;;;;;1.20;1.10;;;;;;;;;;4738508;30;20143;-75
2023/07/12 01:36:40;;;;;;;1.95;1.40;;;;;;;;;;4743466;30;20144;-76
2023/07/12 01:39:07;;;;;;;1.27;1.17;;;;;;;;;;4734480;30;20610;-75
2023/07/12 01:41:35;;;;;;;1.20;1.10;;;;;;;;;;4740284;30;20102;-75
2023/07/12 01:44:03;;;;;;;1.20;1.10;;;;;;;;;;4735660;30;20462;-76
2023/07/12 01:46:30;;;;;;;2.47;1.40;;;;;;;;;;4733925;30;20538;-76
2023/07/12 01:48:58;;;;;;;2.13;1.48;;;;;;;;;;4741446;30;20520;-75
2023/07/12 01:51:26;;;;;;;1.58;1.10;;;;;;;;;;4737080;30;20052;-76
2023/07/12 01:53:54;;;;;;;3.42;1.10;;;;;;;;;;4734480;30;20423;-76
2023/07/12 01:56:21;;;;;;;1.20;1.10;;;;;;;;;;4734649;30;20514;-75
2023/07/12 01:58:51;;;;;;;1.88;0.98;;;;;;;;;;4741274;30;20114;-75
2023/07/12 02:01:19;;;;;;;3.85;1.13;;;;;;;;;;4729169;30;20380;-75
2023/07/12 02:03:47;;;;;;;1.20;1.10;;;;;;;;;;4732491;30;20064;-75
2023/07/12 02:06:16;;;;;;;1.77;1.10;;;;;;;;;;4749980;30;20135;-75
2023/07/12 02:08:44;;;;;;;1.88;1.30;;;;;;;;;;4748809;30;20139;-76
2023/07/12 02:11:13;;;;;;;1.77;1.30;;;;;;;;;;4734734;30;20059;-76
2023/07/12 02:13:40;;;;;;;1.30;1.10;;;;;;;;;;4729305;30;20122;-76
2023/07/12 02:16:08;;;;;;;1.15;1.10;;;;;;;;;;4737105;30;20052;-76
2023/07/12 02:18:35;;;;;;;1.67;1.35;;;;;;;;;;4740853;30;20075;-76
2023/07/12 02:21:03;;;;;;;3.78;1.77;;;;;;;;;;4736611;30;20622;-76
2023/07/12 02:23:34;;;;;;;2.47;1.98;;;;;;;;;;4739213;30;20072;-75
2023/07/12 02:26:03;;;;;;;2.72;2.08;;;;;;;;;;4736164;30;20151;-75
2023/07/12 02:28:30;;;;;;;2.30;2.10;;;;;;;;;;4743627;30;20139;-76
2023/07/12 02:31:13;;;;;;;2.85;2.10;;;;;;;;;;4740055;30;20137;-75
2023/07/12 02:33:41;;;;;;;2.10;1.90;;;;;;;;;;4733417;30;20059;-75
2023/07/12 02:36:08;;;;;;;3.38;2.20;;;;;;;;;;4742179;30;20473;-75
2023/07/12 02:38:36;;;;;;;3.22;2.20;;;;;;;;;;4731603;30;20045;-75
2023/07/12 02:41:05;;;;;;;2.92;2.30;;;;;;;;;;4739881;30;20057;-75
2023/07/12 02:43:34;;;;;;;3.42;2.20;;;;;;;;;;4730582;30;20185;-75
2023/07/12 02:46:02;;;;;;;2.33;1.50;;;;;;;;;;4740642;30;20083;-75
2023/07/12 02:48:29;;;;;;;1.35;1.30;;;;;;;;;;4740220;30;20452;-76
2023/07/12 02:50:57;;;;;;;2.35;1.35;;;;;;;;;;4738156;30;20105;-75
2023/07/12 02:53:24;;;;;;;2.70;1.55;;;;;;;;;;4742786;30;20052;-75
2023/07/12 02:55:51;;;;;;;1.60;1.50;;;;;;;;;;4742496;30;20137;-75
2023/07/12 02:58:19;;;;;;;1.55;1.45;;;;;;;;;;4733384;30;20060;-76
2023/07/12 03:00:46;;;;;;;2.08;1.30;;;;;;;;;;4738620;30;20051;-75
2023/07/12 03:03:17;;;;;;;1.95;1.27;;;;;;;;;;4741594;30;20059;-76
2023/07/12 03:05:44;;;;;;;1.45;1.35;;;;;;;;;;4742886;30;20056;-76
2023/07/12 03:08:11;;;;;;;1.55;1.33;;;;;;;;;;4737859;30;20056;-76
2023/07/12 03:10:39;;;;;;;2.40;1.65;;;;;;;;;;4742107;30;20060;-76
2023/07/12 03:13:06;;;;;;;2.65;1.63;;;;;;;;;;4743235;30;20058;-75
2023/07/12 03:15:38;;;;;;;1.27;1.15;;;;;;;;;;4740678;30;20516;-75
2023/07/12 03:18:05;;;;;;;3.10;1.45;;;;;;;;;;4743026;30;20508;-75
2023/07/12 03:20:33;;;;;;;1.60;1.50;;;;;;;;;;4735365;30;20080;-75
2023/07/12 03:23:01;;;;;;;2.05;1.70;;;;;;;;;;4738090;30;20203;-76
2023/07/12 03:25:28;;;;;;;1.60;1.50;;;;;;;;;;4736901;30;20070;-76
2023/07/12 03:27:56;;;;;;;3.30;1.60;;;;;;;;;;4735975;30;20048;-75
2023/07/12 03:30:23;;;;;;;1.67;1.42;;;;;;;;;;4737559;30;20162;-75
2023/07/12 03:32:51;;;;;;;1.50;1.40;;;;;;;;;;4745469;30;20044;-75
2023/07/12 03:35:18;;;;;;;1.50;1.40;;;;;;;;;;4732531;30;20067;-75
2023/07/12 03:37:46;;;;;;;3.30;1.50;;;;;;;;;;4740196;30;20067;-76
2023/07/12 03:40:14;;;;;;;2.70;1.52;;;;;;;;;;4732539;30;20076;-75
2023/07/12 03:42:41;;;;;;;3.38;1.40;;;;;;;;;;4741427;30;20450;-75
2023/07/12 03:45:08;;;;;;;2.20;1.35;;;;;;;;;;4737292;30;20100;-75
2023/07/12 03:47:36;;;;;;;1.63;1.50;;;;;;;;;;4738923;30;20106;-75
2023/07/12 03:50:03;;;;;;;1.60;1.48;;;;;;;;;;4740678;30;20056;-75
2023/07/12 03:52:31;;;;;;;2.95;1.90;;;;;;;;;;4733754;30;20045;-75
2023/07/12 03:54:58;;;;;;;1.40;1.30;;;;;;;;;;4733275;30;20131;-76
2023/07/12 03:57:26;;;;;;;1.25;1.25;;;;;;;;;;4729349;30;20056;-75
2023/07/12 04:00:00;;;;;;;1.50;1.40;;;;;;;;;;4740931;30;20077;-75
2023/07/12 04:02:31;;;;;;;2.38;2.05;;;;;;;;;;4799387;24;20075;-76
2023/07/12 04:05:01;;;;;;;2.45;1.40;;;;;;;;;;4756231;30;20457;-76
2023/07/12 04:07:28;;;;;;;1.85;1.48;;;;;;;;;;4761876;30;20059;-76
2023/07/12 04:09:55;;;;;;;4.10;1.40;;;;;;;;;;4759456;30;20054;-76
2023/07/12 04:12:23;;;;;;;1.70;1.30;;;;;;;;;;4753671;30;20086;-77
2023/07/12 04:14:50;;;;;;;1.70;1.35;;;;;;;;;;4748425;30;20086;-76
2023/07/12 04:17:18;;;;;;;4.30;1.20;;;;;;;;;;4742912;30;20130;-77
2023/07/12 04:19:45;;;;;;;1.88;1.50;;;;;;;;;;4746355;30;20047;-76
2023/07/12 04:22:12;;;;;;;2.38;1.48;;;;;;;;;;4756277;30;20478;-76
2023/07/12 04:24:40;;;;;;;1.80;1.27;;;;;;;;;;4748713;30;20588;-77
2023/07/12 04:27:07;;;;;;;1.75;1.65;;;;;;;;;;4756451;30;20142;-78
2023/07/12 04:29:35;;;;;;;2.22;1.50;;;;;;;;;;4754292;30;20056;-77
2023/07/12 04:32:03;;;;;;;2.45;1.50;;;;;;;;;;4756108;30;20117;-77
2023/07/12 04:34:30;;;;;;;2.60;2.40;;;;;;;;;;4761826;30;20546;-77
2023/07/12 04:37:06;;;;;;;4.10;2.25;;;;;;;;;;4758523;30;20070;-77
2023/07/12 04:39:34;;;;;;;2.80;2.20;;;;;;;;;;4760547;30;20081;-77
2023/07/12 04:42:02;;;;;;;3.03;2.72;;;;;;;;;;4761225;30;20415;-78
2023/07/12 04:44:30;;;;;;;6.75;2.42;;;;;;;;;;4761811;30;20079;-78
2023/07/12 04:46:57;;;;;;;3.22;2.35;;;;;;;;;;4758308;30;20060;-77
2023/07/12 04:49:25;;;;;;;3.00;1.98;;;;;;;;;;4759717;30;20068;-77
2023/07/12 04:51:53;;;;;;;2.17;1.95;;;;;;;;;;4761350;30;20055;-78
2023/07/12 04:54:20;;;;;;;2.63;2.05;;;;;;;;;;4757244;30;20556;-76
2023/07/12 04:56:48;;;;;;;2.42;2.22;;;;;;;;;;4772817;30;20051;-76
2023/07/12 04:59:15;;;;;;;3.53;2.08;;;;;;;;;;4760261;30;20052;-78
2023/07/12 05:01:43;;;;;;;2.75;2.00;;;;;;;;;;4756970;30;20048;-78
2023/07/12 05:04:10;;;;;;;2.05;1.83;;;;;;;;;;4752934;30;20052;-77
2023/07/12 05:06:38;;;;;;;2.45;1.98;;;;;;;;;;4756746;30;20576;-78
2023/07/12 05:09:06;;;;;;;1.85;1.75;;;;;;;;;;4762473;30;20488;-77
2023/07/12 05:11:34;;;;;;;3.13;2.03;;;;;;;;;;4761001;30;20056;-78
2023/07/12 05:14:04;;;;;;;1.92;1.83;;;;;;;;;;4763796;30;20055;-78
2023/07/12 05:16:31;;;;;;;2.00;1.80;;;;;;;;;;4766193;30;20070;-79
2023/07/12 05:18:59;;;;;;;2.08;1.85;;;;;;;;;;4760425;30;20056;-79
2023/07/12 05:21:26;;;;;;;2.10;2.00;;;;;;;;;;4758366;30;20131;-78
2023/07/12 05:23:54;;;;;;;3.10;2.17;;;;;;;;;;4764181;30;20055;-79
2023/07/12 05:26:21;;;;;;;2.25;1.95;;;;;;;;;;4758555;30;20141;-79
2023/07/12 05:28:49;;;;;;;1.95;1.85;;;;;;;;;;4760398;30;20064;-78
2023/07/12 05:31:18;;;;;;;2.60;1.95;;;;;;;;;;4763370;30;20570;-78
2023/07/12 05:33:46;;;;;;;3.85;1.98;;;;;;;;;;4759236;30;20121;-79
2023/07/12 05:36:14;;;;;;;2.20;2.10;;;;;;;;;;4762926;30;20055;-77
2023/07/12 05:38:42;;;;;;;2.47;2.10;;;;;;;;;;4756761;30;20044;-77
2023/07/12 05:41:17;;;;;;;2.22;1.92;;;;;;;;;;4757123;30;20048;-78
2023/07/12 05:43:46;;;;;;;2.53;1.70;;;;;;;;;;4752129;30;20056;-79
2023/07/12 05:46:14;;;;;;;2.97;2.35;;;;;;;;;;4753668;30;20083;-77
2023/07/12 05:48:41;;;;;;;2.22;2.05;;;;;;;;;;4758300;30;20423;-78
2023/07/12 05:51:09;;;;;;;1.92;1.77;;;;;;;;;;4757692;30;20059;-79
2023/07/12 05:53:37;;;;;;;3.97;2.10;;;;;;;;;;4753682;30;20822;-79
2023/07/12 05:56:05;;;;;;;2.00;1.80;;;;;;;;;;4758690;30;20048;-79
2023/07/12 05:58:34;;;;;;;2.00;1.75;;;;;;;;;;4762577;30;20059;-79
2023/07/12 06:01:02;;;;;;;2.22;2.08;;;;;;;;;;4768285;30;20051;-79
2023/07/12 06:03:31;;;;;;;2.00;1.80;;;;;;;;;;4759618;30;20498;-79
2023/07/12 06:06:00;;;;;;;3.42;1.70;;;;;;;;;;4757953;30;20055;-79
2023/07/12 06:08:30;;;;;;;2.30;1.92;;;;;;;;;;4756158;30;20514;-79
2023/07/12 06:11:00;;;;;;;2.55;1.80;;;;;;;;;;4755932;30;20063;-79
2023/07/12 06:13:29;;;;;;;3.05;2.20;;;;;;;;;;4757587;30;20151;-79
2023/07/12 06:16:00;;;;;;;1.63;1.52;;;;;;;;;;4764857;29;20550;-80
2023/07/12 06:18:30;;;;;;;2.85;1.90;;;;;;;;;;4773139;30;20053;-80
2023/07/12 06:20:59;;;;;;;2.00;1.80;;;;;;;;;;4760635;30;20048;-79
2023/07/12 06:23:27;;;;;;;2.28;2.08;;;;;;;;;;4764932;30;20052;-80
2023/07/12 06:25:58;;;;;;;2.50;1.85;;;;;;;;;;4763284;30;20055;-79
2023/07/12 06:28:35;;;;;;;1.88;1.77;;;;;;;;;;4757068;30;20087;-79
2023/07/12 06:31:03;;;;;;;2.80;1.63;;;;;;;;;;4766389;30;20065;-80
2023/07/12 06:33:30;;;;;;;3.75;1.58;;;;;;;;;;4755829;30;20064;-78
2023/07/12 06:35:58;;;;;;;2.30;1.55;;;;;;;;;;4751763;30;20056;-77
2023/07/12 06:38:27;;;;;;;3.13;1.88;;;;;;;;;;4754263;30;20082;-78
2023/07/12 06:40:55;;;;;;;2.22;1.80;;;;;;;;;;4766454;30;20051;-78
2023/07/12 06:43:24;;;;;;;1.65;1.55;;;;;;;;;;4766071;30;20051;-78
2023/07/12 06:46:17;;;;;;;2.78;1.88;;;;;;;;;;4761877;30;20047;-79
2023/07/12 06:48:45;;;;;;;2.75;1.52;;;;;;;;;;4772003;30;20054;-79
2023/07/12 06:51:13;;;;;;;3.78;1.85;;;;;;;;;;4769179;30;20055;-79
2023/07/12 06:53:40;;;;;;;1.73;1.63;;;;;;;;;;4772050;30;20121;-79
2023/07/12 06:56:08;;;;;;;2.53;1.65;;;;;;;;;;4769769;30;20051;-78
2023/07/12 06:58:36;;;;;;;2.85;2.00;;;;;;;;;;4769722;30;20067;-79
2023/07/12 07:01:07;;;;;;;1.80;1.70;;;;;;;;;;4772339;30;20048;-79
2023/07/12 07:03:35;;;;;;;2.42;1.50;;;;;;;;;;4766771;29;20130;-79
2023/07/12 07:06:03;;;;;;;2.42;1.65;;;;;;;;;;4764674;30;20548;-78
2023/07/12 07:08:31;;;;;;;2.08;1.95;;;;;;;;;;4767785;30;20419;-79
2023/07/12 07:11:00;;;;;;;3.20;1.80;;;;;;;;;;4767945;30;20050;-79
2023/07/12 07:13:28;;;;;;;2.38;1.70;;;;;;;;;;4762097;30;20519;-79
2023/07/12 07:15:55;;;;;;;1.90;1.70;;;;;;;;;;4760768;30;20249;-79
2023/07/12 07:18:23;;;;;;;4.65;2.20;;;;;;;;;;4759505;30;20116;-79
2023/07/12 07:20:52;;;;;;;2.25;2.00;;;;;;;;;;4763085;30;20052;-79
2023/07/12 07:23:20;;;;;;;2.10;1.90;;;;;;;;;;4765738;30;20580;-79
2023/07/12 07:25:47;;;;;;;2.42;1.85;;;;;;;;;;4760047;30;20060;-79
2023/07/12 07:28:15;;;;;;;2.17;1.80;;;;;;;;;;4765699;30;20159;-79
2023/07/12 07:30:43;;;;;;;4.70;1.90;;;;;;;;;;4764367;30;20126;-79
2023/07/12 07:33:10;;;;;;;1.92;1.80;;;;;;;;;;4767469;30;20065;-79
2023/07/12 07:35:38;;;;;;;2.80;1.67;;;;;;;;;;4758954;30;20573;-79
2023/07/12 07:38:06;;;;;;;1.67;1.58;;;;;;;;;;4756011;30;20563;-79
2023/07/12 07:40:33;;;;;;;2.83;1.80;;;;;;;;;;4761446;30;20109;-79
2023/07/12 07:43:01;;;;;;;2.00;1.77;;;;;;;;;;4754805;30;20074;-79
2023/07/12 07:45:29;;;;;;;3.25;1.83;;;;;;;;;;4746364;30;20342;-79
2023/07/12 07:47:56;;;;;;;3.60;1.80;;;;;;;;;;4744844;30;20056;-78
2023/07/12 07:50:25;;;;;;;3.45;1.77;;;;;;;;;;4745499;30;20147;-79
2023/07/12 07:52:53;;;;;;;1.70;1.60;;;;;;;;;;4753664;30;20154;-79
2023/07/12 07:55:21;;;;;;;1.42;1.33;;;;;;;;;;4757189;30;20047;-79
2023/07/12 07:57:49;;;;;;;1.58;1.48;;;;;;;;;;4757803;30;20066;-78
2023/07/12 08:00:16;;;;;;;2.67;1.77;;;;;;;;;;4769612;30;20043;-79
2023/07/12 08:02:44;;;;;;;1.75;1.65;;;;;;;;;;4759087;30;20374;-78
2023/07/12 08:05:17;;;;;;;1.92;1.80;;;;;;;;;;4760038;30;20135;-79
2023/07/12 08:07:46;;;;;;;1.60;1.50;;;;;;;;;;4762846;30;20138;-79
2023/07/12 08:10:18;;;;;;;1.88;1.40;;;;;;;;;;4770425;30;20059;-79
2023/07/12 08:12:46;;;;;;;1.85;1.50;;;;;;;;;;4770692;30;20242;-79
2023/07/12 08:15:13;;;;;;;1.50;1.40;;;;;;;;;;4770574;30;20146;-79
2023/07/12 08:17:41;;;;;;;1.65;1.55;;;;;;;;;;4765973;30;20052;-79
2023/07/12 08:20:08;;;;;;;3.17;1.60;;;;;;;;;;4770390;30;20059;-78
2023/07/12 08:22:36;;;;;;;2.45;1.70;;;;;;;;;;4774442;30;20064;-78
2023/07/12 08:25:04;;;;;;;9.40;3.33;;;;;;;;;;4772947;30;20143;-78
2023/07/12 08:27:31;;;;;;;8.07;2.85;;;;;;;;;;4767159;30;20056;-78
2023/07/12 08:29:59;;;;;;;5.10;2.67;;;;;;;;;;4772083;30;20055;-78
2023/07/12 08:32:32;;;;;;;2.60;2.40;;;;;;;;;;4769410;30;20159;-78
2023/07/12 08:35:03;;;;;;;7.03;2.00;;;;;;;;;;4765468;30;20052;-78
2023/07/12 08:37:31;;;;;;;2.00;1.80;;;;;;;;;;4764915;30;20062;-79
2023/07/12 08:39:58;;;;;;;6.55;2.60;;;;;;;;;;4770219;30;20070;-78
2023/07/12 08:42:32;;;;;;;2.28;2.00;;;;;;;;;;4769136;30;20059;-79
2023/07/12 08:45:01;;;;;;;1.70;1.55;;;;;;;;;;4769020;30;20060;-78
2023/07/12 08:47:32;;;;;;;3.80;2.08;;;;;;;;;;4767840;30;20066;-77
2023/07/12 08:50:00;;;;;;;2.67;2.00;;;;;;;;;;4769331;30;20154;-78
2023/07/12 08:52:32;;;;;;;2.83;1.85;;;;;;;;;;4757576;30;20056;-78
2023/07/12 08:55:01;;;;;;;1.95;1.80;;;;;;;;;;4769039;30;20059;-79
2023/07/12 08:57:31;;;;;;;3.25;2.08;;;;;;;;;;4755917;30;20095;-78
2023/07/12 09:00:01;;;;;;;2.00;1.80;;;;;;;;;;4766441;30;20567;-79
2023/07/12 09:02:31;;;;;;;4.65;1.65;;;;;;;;;;4766468;30;20060;-79
2023/07/12 09:05:05;;;;;;;2.30;2.10;;;;;;;;;;4774118;30;20144;-83
2023/07/12 09:07:33;;;;;;;1.70;1.60;;;;;;;;;;4766689;30;20491;-82
2023/07/12 09:10:01;;;;;;;2.42;1.70;;;;;;;;;;4756762;30;20372;-80
2023/07/12 09:12:34;;;;;;;2.80;1.67;;;;;;;;;;4760684;30;20434;-79
2023/07/12 09:15:03;;;;;;;2.53;1.70;;;;;;;;;;4763968;30;20063;-79
2023/07/12 09:17:34;;;;;;;3.15;1.60;;;;;;;;;;4773182;30;20060;-80
2023/07/12 09:20:03;;;;;;;4.35;1.92;;;;;;;;;;4756909;30;20057;-79
2023/07/12 09:22:30;;;;;;;2.53;1.50;;;;;;;;;;4765593;30;20129;-79
2023/07/12 09:24:58;;;;;;;1.52;1.42;;;;;;;;;;4766884;30;20139;-78
2023/07/12 09:27:27;;;;;;;1.83;1.70;;;;;;;;;;4762552;30;20052;-79
2023/07/12 09:29:59;;;;;;;2.53;2.00;;;;;;;;;;4769997;30;20063;-79
2023/07/12 09:32:34;;;;;;;1.88;1.77;;;;;;;;;;4771724;30;20082;-79
2023/07/12 09:35:04;;;;;;;2.90;1.90;;;;;;;;;;4766092;30;20425;-78
2023/07/12 09:37:36;;;;;;;1.55;1.45;;;;;;;;;;4771430;30;20097;-78
2023/07/12 09:40:04;;;;;;;5.20;1.83;;;;;;;;;;4773706;30;20048;-79
2023/07/12 09:42:31;;;;;;;2.33;2.10;;;;;;;;;;4772541;30;20060;-79
2023/07/12 09:45:04;;;;;;;2.83;2.00;;;;;;;;;;4771363;30;20728;-80
2023/07/12 09:47:46;;;;;;;4.10;2.10;;;;;;;;;;4771593;30;20129;-79
2023/07/12 09:50:23;;;;;;;1.98;1.80;;;;;;;;;;4771941;30;20424;-79
2023/07/12 09:52:54;;;;;;;2.92;2.00;;;;;;;;;;4751816;30;20123;-78
2023/07/12 09:55:25;;;;;;;2.28;1.60;;;;;;;;;;4768309;30;20097;-79
2023/07/12 09:57:52;;;;;;;;;;;;;;;;;;4772458;30;20054;-79
2023/07/12 10:00:27;;;;;;;3.28;2.10;;;;;;;;;;4772151;30;19980;-79
2023/07/12 10:03:11;;;;;;;2.65;1.67;;;;;;;;;;4761044;24;20059;-74
2023/07/12 10:05:41;;;;;;;1.95;1.60;;;;;;;;;;4739578;30;20075;-74
2023/07/12 10:08:10;;;;;;;2.17;1.63;;;;;;;;;;4746914;30;20048;-74
2023/07/12 10:10:48;;;;;;;1.92;1.73;;;;;;;;;;4742556;30;20096;-74
2023/07/12 10:13:24;;;;;;;2.13;1.67;;;;;;;;;;4728672;30;20516;-75
2023/07/12 10:15:52;;;;;;;1.67;1.55;;;;;;;;;;4723487;30;20471;-75
2023/07/12 10:18:22;;;;;;;1.63;1.42;;;;;;;;;;4725334;30;20053;-75
2023/07/12 10:20:50;;;;;;;3.70;1.70;;;;;;;;;;4727626;30;20504;-75
2023/07/12 10:23:21;;;;;;;2.00;1.60;;;;;;;;;;4728701;30;20134;-75
2023/07/12 10:25:52;;;;;;;5.63;1.53;;;;;;;;;;4728736;30;20346;-75
2023/07/12 10:28:20;;;;;;;1.85;1.65;;;;;;;;;;4729166;30;20322;-75
2023/07/12 10:30:49;;;;;;;2.92;1.38;;;;;;;;;;4722653;30;20061;-75
2023/07/12 10:33:23;;;;;;;4.65;1.83;;;;;;;;;;4730500;30;20052;-74
2023/07/12 10:35:59;;;;;;;1.67;1.48;;;;;;;;;;4727155;30;20060;-75
2023/07/12 10:38:28;;;;;;;2.35;1.48;;;;;;;;;;4723482;30;20467;-75
2023/07/12 10:41:00;;;;;;;2.42;1.30;;;;;;;;;;4729266;30;20045;-75
2023/07/12 10:43:27;;;;;;;;;;;;;;;;;;4724664;30;20048;-75
2023/07/12 10:45:59;;;;;;;2.60;1.33;;;;;;;;;;4727096;30;20309;-75
2023/07/12 10:48:28;;;;;;;2.55;1.30;;;;;;;;;;4731356;30;20536;-75
2023/07/12 10:51:12;;;;;;;5.38;1.63;;;;;;;;;;4728738;30;20057;-75
2023/07/12 10:53:48;;;;;;;1.50;1.40;;;;;;;;;;4729121;30;20065;-75
2023/07/12 10:56:35;;;;;;;1.90;1.30;;;;;;;;;;4729610;30;20379;-75
2023/07/12 10:59:27;;;;;;;2.60;1.27;;;;;;;;;;4727867;30;20061;-75
2023/07/12 11:01:55;;;;;;;2.28;1.20;;;;;;;;;;4728772;30;20055;-76
2023/07/12 11:04:33;;;;;;;1.38;1.23;;;;;;;;;;4726865;30;20461;-75
2023/07/12 11:07:08;;;;;;;3.00;1.30;;;;;;;;;;4725537;30;20428;-75
2023/07/12 11:09:47;;;;;;;2.17;1.20;;;;;;;;;;4728348;30;20063;-75
2023/07/12 11:12:27;;;;;;;1.30;1.20;;;;;;;;;;4728131;30;20163;-75
2023/07/12 11:15:06;;;;;;;1.50;0.98;;;;;;;;;;4723586;30;20063;-76
2023/07/12 11:17:48;;;;;;;1.10;1.05;;;;;;;;;;4722450;30;20063;-75
2023/07/12 11:20:23;;;;;;;1.40;1.13;;;;;;;;;;4724396;30;20053;-75
2023/07/12 11:22:53;;;;;;;1.63;1.10;;;;;;;;;;4727465;30;20063;-76
2023/07/12 11:25:38;;;;;;;1.85;1.38;;;;;;;;;;4726668;30;20166;-76
2023/07/12 11:28:20;;;;;;;1.25;1.00;;;;;;;;;;4726521;30;20090;-74
2023/07/12 11:31:03;;;;;;;1.10;1.00;;;;;;;;;;4727471;30;20061;-76
2023/07/12 11:33:32;;;;;;;2.25;1.17;;;;;;;;;;4728547;30;20114;-75
2023/07/12 11:36:03;;;;;;;1.20;1.20;;;;;;;;;;4728255;30;20041;-76
2023/07/12 11:38:33;;;;;;;1.17;1.08;;;;;;;;;;4728195;30;20049;-75
2023/07/12 11:41:13;;;;;;;1.42;1.17;;;;;;;;;;4728477;30;20052;-75
2023/07/12 11:43:41;;;;;;;1.33;1.23;;;;;;;;;;4711125;30;20067;-74
2023/07/12 11:46:18;;;;;;;2.67;1.25;;;;;;;;;;4723212;30;20064;-74
2023/07/12 11:48:50;;;;;;;1.73;1.10;;;;;;;;;;4721929;30;20063;-74
2023/07/12 11:51:20;;;;;;;1.10;1.00;;;;;;;;;;4725012;30;20120;-75
2023/07/12 11:54:11;;;;;;;2.03;1.10;;;;;;;;;;4723547;30;20084;-74
2023/07/12 11:56:41;;;;;;;2.17;0.80;;;;;;;;;;4722616;30;20513;-74
2023/07/12 11:59:39;;;;;;;1.00;1.00;;;;;;;;;;4719802;30;20060;-75
2023/07/12 12:02:13;;;;;;;1.42;1.30;;;;;;;;;;4722282;30;20468;-75
2023/07/12 12:04:41;;;;;;;1.67;1.00;;;;;;;;;;4719962;30;20404;-75
2023/07/12 12:07:26;;;;;;;4.10;1.15;;;;;;;;;;4721461;30;20410;-75
2023/07/12 12:09:56;;;;;;;4.18;1.20;;;;;;;;;;4722767;30;20057;-75
2023/07/12 12:12:27;;;;;;;1.40;1.10;;;;;;;;;;4724582;30;20065;-76
2023/07/12 12:14:55;;;;;;;1.15;1.05;;;;;;;;;;4720300;30;20057;-75
2023/07/12 12:17:27;;;;;;;2.42;1.23;;;;;;;;;;4725111;30;20427;-76
2023/07/12 12:20:02;;;;;;;1.88;1.30;;;;;;;;;;4721867;30;20048;-75
2023/07/12 12:22:30;;;;;;;1.30;1.00;;;;;;;;;;4721850;30;20177;-76
2023/07/12 12:25:01;;;;;;;1.55;1.20;;;;;;;;;;4721082;30;20076;-76
2023/07/12 12:27:37;;;;;;;5.18;1.80;;;;;;;;;;4718686;30;20060;-76
2023/07/12 12:30:33;;;;;;;2.58;1.00;;;;;;;;;;4711694;30;20064;-76
2023/07/12 12:33:04;;;;;;;0.95;0.90;;;;;;;;;;4723502;30;20044;-76
2023/07/12 12:35:46;;;;;;;2.90;1.30;;;;;;;;;;4720514;30;20053;-76
2023/07/12 12:38:23;;;;;;;2.47;1.23;;;;;;;;;;4723961;30;20610;-76
2023/07/12 12:40:57;;;;;;;3.22;1.20;;;;;;;;;;4727513;30;20051;-76
2023/07/12 12:43:25;;;;;;;3.15;1.17;;;;;;;;;;4724135;30;20048;-77
2023/07/12 12:45:54;;;;;;;2.22;1.30;;;;;;;;;;4723778;30;20099;-76
2023/07/12 12:48:33;;;;;;;1.17;1.08;;;;;;;;;;4724038;30;20072;-76
2023/07/12 12:51:04;;;;;;;1.38;1.00;;;;;;;;;;4720520;30;20115;-76
2023/07/12 12:53:51;;;;;;;1.63;1.25;;;;;;;;;;4723798;30;20425;-77
2023/07/12 12:56:23;;;;;;;2.97;1.17;;;;;;;;;;4723676;30;20138;-77
2023/07/12 12:58:53;;;;;;;2.05;1.20;;;;;;;;;;4721515;30;20053;-77
2023/07/12 13:01:24;;;;;;;4.18;1.30;;;;;;;;;;4721855;30;20066;-76
2023/07/12 13:03:54;;;;;;;1.60;1.30;;;;;;;;;;4720874;30;20056;-77
2023/07/12 13:06:27;;;;;;;3.53;1.20;;;;;;;;;;4721086;30;20049;-76
2023/07/12 13:08:57;;;;;;;1.42;1.30;;;;;;;;;;4718118;30;20057;-77
2023/07/12 13:11:27;;;;;;;;;;;;;;;;;;4723306;30;20428;-76
2023/07/12 13:13:58;;;;;;;2.72;1.75;;;;;;;;;;4723302;30;19945;-76
2023/07/12 13:16:28;;;;;;;;;;;;;;;;;;4725037;30;20051;-76
2023/07/12 13:18:58;;;;;;;1.73;1.30;;;;;;;;;;4724986;30;19930;-76
2023/07/12 13:21:46;;;;;;;2.38;1.40;;;;;;;;;;4722882;30;20076;-77
2023/07/12 13:24:14;;;;;;;1.65;1.50;;;;;;;;;;4725133;30;20149;-76
2023/07/12 13:27:17;;;;;;;1.73;1.50;;;;;;;;;;4718275;30;20149;-76
2023/07/12 13:29:45;;;;;;;2.65;1.60;;;;;;;;;;4721709;30;20057;-76
2023/07/12 13:32:13;;;;;;;2.20;1.58;;;;;;;;;;4724887;30;20524;-76
2023/07/12 13:34:42;;;;;;;1.98;1.55;;;;;;;;;;4722799;30;20076;-76
2023/07/12 13:37:16;;;;;;;3.20;1.75;;;;;;;;;;4722397;30;20057;-76
2023/07/12 13:39:54;;;;;;;2.08;1.98;;;;;;;;;;4722823;30;20128;-76
2023/07/12 13:42:22;;;;;;;2.53;1.70;;;;;;;;;;4726155;30;20072;-76
2023/07/12 13:44:52;;;;;;;3.78;1.80;;;;;;;;;;4725536;30;20224;-75
2023/07/12 13:47:25;;;;;;;2.17;1.60;;;;;;;;;;4724351;30;20055;-76
2023/07/12 13:49:54;;;;;;;1.73;1.50;;;;;;;;;;4724291;30;20503;-76
2023/07/12 13:52:27;;;;;;;2.33;1.85;;;;;;;;;;4723380;30;20049;-76
2023/07/12 13:54:54;;;;;;;2.13;1.70;;;;;;;;;;4720958;30;20053;-76
2023/07/12 13:57:30;;;;;;;2.30;1.40;;;;;;;;;;4726376;30;20466;-76
2023/07/12 13:59:58;;;;;;;1.80;1.70;;;;;;;;;;4722117;30;20064;-77
2023/07/12 14:02:36;;;;;;;2.60;1.70;;;;;;;;;;4725601;30;20398;-77
2023/07/12 14:05:08;;;;;;;2.42;1.80;;;;;;;;;;4725893;30;20303;-77
2023/07/12 14:07:40;;;;;;;2.30;1.77;;;;;;;;;;4727034;30;20063;-78
2023/07/12 14:10:18;;;;;;;2.38;1.70;;;;;;;;;;4723881;30;20122;-78
2023/07/12 14:12:50;;;;;;;2.95;1.80;;;;;;;;;;4723753;30;20060;-78
2023/07/12 14:15:19;;;;;;;2.60;1.73;;;;;;;;;;4728340;30;20063;-77
2023/07/12 14:17:47;;;;;;;2.95;1.90;;;;;;;;;;4723552;30;20056;-77
2023/07/12 14:20:14;;;;;;;2.38;1.77;;;;;;;;;;4741359;30;20056;-76
2023/07/12 14:22:44;;;;;;;4.43;2.08;;;;;;;;;;4729481;30;20056;-77
2023/07/12 14:25:19;;;;;;;3.03;1.98;;;;;;;;;;4724717;30;20049;-77
2023/07/12 14:27:47;;;;;;;2.13;1.95;;;;;;;;;;4727666;30;20143;-77
2023/07/12 14:30:15;;;;;;;2.47;2.10;;;;;;;;;;4729084;30;20523;-77
2023/07/12 14:32:46;;;;;;;2.78;1.80;;;;;;;;;;4726262;30;20053;-77
2023/07/12 14:35:20;;;;;;;2.22;1.80;;;;;;;;;;4726231;30;20095;-77
2023/07/12 14:37:49;;;;;;;2.67;2.03;;;;;;;;;;4722809;30;20054;-77
2023/07/12 14:40:17;;;;;;;1.95;1.80;;;;;;;;;;4724193;30;20075;-77
2023/07/12 14:42:45;;;;;;;1.98;1.80;;;;;;;;;;4723166;30;20504;-77
2023/07/12 14:45:13;;;;;;;5.75;1.90;;;;;;;;;;4723358;30;20048;-77
2023/07/12 14:47:41;;;;;;;2.42;2.22;;;;;;;;;;4722547;30;20122;-77
2023/07/12 14:50:09;;;;;;;5.88;2.15;;;;;;;;;;4721491;30;20440;-77
2023/07/12 14:52:37;;;;;;;2.17;1.98;;;;;;;;;;4721196;30;20206;-77
2023/07/12 14:55:12;;;;;;;2.75;2.08;;;;;;;;;;4721346;30;20466;-76
2023/07/12 14:57:40;;;;;;;2.72;2.20;;;;;;;;;;4720310;30;20052;-78
2023/07/12 15:00:13;;;;;;;;;;;;;;;;;;4722296;30;20433;-78
2023/07/12 15:02:40;;;;;;;1.90;1.70;;;;;;;;;;4721658;30;20024;-77
2023/07/12 15:05:11;;;;;;;2.00;1.80;;;;;;;;;;4721370;30;20390;-77